Time;durP1;ratioP1;P1;durP2;ratioP2;P2;SDS_P1;SDS_P2;PMS_P1;PMS_P2;Temp;Humidity;BMP_temperature;BMP_pressure;BME280_temperature;BME280_humidity;BME280_pressure;Samples;Min_cycle;Max_cycle;Signal;HPM_P1;HPM_P2
2022/09/27 00:01:05;;;;;;;4.32;1.83;;;;;;;12.73;72.83;98975.13;5034587;28;20053;-65
2022/09/27 00:03:33;;;;;;;2.13;1.60;;;;;;;12.72;73.05;98966.38;5009996;28;20049;-65
2022/09/27 00:06:15;;;;;;;2.20;1.30;;;;;;;12.73;72.56;98957.47;5012109;28;20699;-65
2022/09/27 00:08:42;;;;;;;2.65;1.30;;;;;;;12.68;72.90;98963.19;5027039;28;20052;-65
2022/09/27 00:11:26;;;;;;;2.58;1.40;;;;;;;12.68;73.23;98957.09;5035713;28;20081;-64
2022/09/27 00:13:55;;;;;;;3.92;1.70;;;;;;;12.59;73.74;98942.13;5008816;28;20133;-64
2022/09/27 00:16:24;;;;;;;4.53;1.73;;;;;;;12.55;73.58;98938.94;5007178;28;20054;-64
2022/09/27 00:18:52;;;;;;;7.53;1.52;;;;;;;12.52;73.98;98936.59;5031832;28;20580;-64
2022/09/27 00:21:19;;;;;;;3.92;1.50;;;;;;;12.54;74.01;98941.72;5021249;28;20050;-64
2022/09/27 00:23:47;;;;;;;2.50;1.60;;;;;;;12.51;73.66;98934.09;5014937;28;21176;-64
2022/09/27 00:26:14;;;;;;;4.43;1.58;;;;;;;12.50;74.12;98929.78;5013904;28;20410;-64
2022/09/27 00:28:41;;;;;;;3.55;1.45;;;;;;;12.46;74.16;98929.22;5032447;28;20057;-65
2022/09/27 00:31:23;;;;;;;5.35;1.70;;;;;;;12.49;73.73;98936.03;5014096;28;20054;-64
2022/09/27 00:33:52;;;;;;;2.05;1.58;;;;;;;12.47;74.36;98930.88;5004859;28;20061;-65
2022/09/27 00:36:20;;;;;;;3.30;1.80;;;;;;;12.48;73.91;98929.94;5025412;28;20096;-63
2022/09/27 00:38:48;;;;;;;6.22;1.90;;;;;;;12.51;73.79;98931.44;5028388;28;20610;-65
2022/09/27 00:41:27;;;;;;;4.10;1.75;;;;;;;12.44;73.98;98925.91;5031206;28;20061;-65
2022/09/27 00:44:32;;;;;;;4.93;1.90;;;;;;;12.41;73.73;98918.28;5007391;28;20050;-65
2022/09/27 00:47:03;;;;;;;5.78;1.75;;;;;;;12.42;73.35;98917.28;4997454;28;20535;-65
2022/09/27 00:49:35;;;;;;;3.75;1.63;;;;;;;12.39;74.15;98910.53;5026804;28;20048;-65
2022/09/27 00:52:06;;;;;;;2.72;1.58;;;;;;;12.39;74.11;98910.53;5017319;28;20054;-65
2022/09/27 00:54:35;;;;;;;2.15;1.48;;;;;;;12.36;74.13;98908.16;5044719;28;20045;-65
2022/09/27 00:57:04;;;;;;;2.50;1.52;;;;;;;12.36;73.94;98907.31;5030430;28;20054;-65
2022/09/27 00:59:44;;;;;;;2.42;1.50;;;;;;;12.39;73.50;98902.59;5012640;28;20037;-65
2022/09/27 01:02:11;;;;;;;3.40;1.77;;;;;;;12.35;73.66;98900.41;5013267;28;20048;-65
2022/09/27 01:04:41;;;;;;;3.40;1.70;;;;;;;12.34;73.73;98893.47;5037486;28;20063;-66
2022/09/27 01:07:08;;;;;;;8.18;2.65;;;;;;;12.31;73.78;98886.66;4996162;28;20167;-64
2022/09/27 01:09:36;;;;;;;2.75;1.65;;;;;;;12.27;73.81;98887.09;5022222;28;20530;-65
2022/09/27 01:12:28;;;;;;;5.80;2.13;;;;;;;12.26;74.16;98886.25;5009426;28;20129;-66
2022/09/27 01:15:17;;;;;;;4.82;1.83;;;;;;;12.26;74.17;98882.78;5015213;28;20058;-65
2022/09/27 01:18:29;;;;;;;4.28;1.60;;;;;;;12.26;73.90;98877.50;4999647;28;20073;-66
2022/09/27 01:21:02;;;;;;;2.95;1.60;;;;;;;12.25;73.71;98865.28;5026902;28;20060;-65
2022/09/27 01:23:42;;;;;;;2.80;1.42;;;;;;;12.24;74.17;98861.81;5008982;28;20053;-65
2022/09/27 01:26:26;;;;;;;7.10;1.63;;;;;;;12.21;74.35;98862.13;5033820;28;20057;-65
2022/09/27 01:29:13;;;;;;;3.35;2.00;;;;;;;12.21;73.91;98853.38;5011188;28;20061;-66
2022/09/27 01:31:51;;;;;;;4.97;1.77;;;;;;;12.20;74.03;98852.50;5012098;28;20053;-67
2022/09/27 01:34:34;;;;;;;2.42;1.33;;;;;;;12.24;74.25;98855.69;5020079;28;20048;-66
2022/09/27 01:37:09;;;;;;;3.42;1.60;;;;;;;12.18;74.02;98851.00;5030288;28;20061;-65
2022/09/27 01:39:55;;;;;;;3.00;1.88;;;;;;;12.21;74.06;98848.09;5014568;28;20132;-65
2022/09/27 01:42:36;;;;;;;2.28;1.60;;;;;;;12.20;74.25;98846.41;5025481;28;20075;-66
2022/09/27 01:45:13;;;;;;;3.40;1.88;;;;;;;12.19;74.38;98845.56;5027828;28;20130;-65
2022/09/27 01:47:44;;;;;;;3.22;1.70;;;;;;;12.19;74.10;98837.66;5025474;28;20124;-66
2022/09/27 01:50:22;;;;;;;3.25;1.50;;;;;;;12.20;74.09;98847.22;5027873;28;20084;-65
2022/09/27 01:52:54;;;;;;;5.70;2.33;;;;;;;12.18;74.45;98840.47;5018229;28;20509;-66
2022/09/27 01:55:23;;;;;;;3.50;1.40;;;;;;;12.19;74.32;98828.94;4998164;28;20063;-66
2022/09/27 01:58:03;;;;;;;5.97;1.80;;;;;;;12.24;73.95;98826.69;5008329;28;20065;-66
2022/09/27 02:00:31;;;;;;;4.68;1.63;;;;;;;12.20;73.57;98823.50;5020580;28;20057;-66
2022/09/27 02:03:05;;;;;;;4.07;1.40;;;;;;;12.19;74.07;98821.84;5029580;28;20136;-66
2022/09/27 02:05:55;;;;;;;3.15;1.35;;;;;;;12.24;73.95;98816.13;5036531;28;20041;-67
2022/09/27 02:08:35;;;;;;;5.10;1.73;;;;;;;12.30;73.26;98811.13;5008731;28;20061;-66
2022/09/27 02:11:07;;;;;;;4.03;1.67;;;;;;;12.26;73.37;98807.09;5006786;28;20049;-66
2022/09/27 02:13:51;;;;;;;2.50;1.75;;;;;;;12.25;73.30;98802.81;5014696;28;20524;-65
2022/09/27 02:16:40;;;;;;;3.70;1.50;;;;;;;12.26;73.90;98793.91;5008555;28;20122;-66
2022/09/27 02:19:12;;;;;;;3.30;1.55;;;;;;;12.30;73.67;98790.00;5031022;28;20063;-65
2022/09/27 02:22:05;;;;;;;3.13;1.20;;;;;;;12.34;73.36;98790.56;5011927;28;20494;-66
2022/09/27 02:24:59;;;;;;;5.38;1.50;;;;;;;12.32;72.88;98787.22;5011926;28;20045;-65
2022/09/27 02:27:31;;;;;;;3.45;1.20;;;;;;;12.36;73.31;98788.59;5010679;28;20049;-64
2022/09/27 02:30:05;;;;;;;2.53;1.50;;;;;;;12.33;73.39;98770.41;5024287;28;20478;-66
2022/09/27 02:32:33;;;;;;;2.03;1.20;;;;;;;12.37;73.03;98769.13;5003378;28;20052;-64
2022/09/27 02:35:23;;;;;;;6.00;1.40;;;;;;;12.38;72.81;98771.66;5028524;28;20052;-67
2022/09/27 02:37:50;;;;;;;3.28;1.40;;;;;;;12.39;72.96;98769.81;5028546;28;20136;-65
2022/09/27 02:40:18;;;;;;;3.13;1.23;;;;;;;12.43;73.24;98768.56;5012184;28;20061;-66
2022/09/27 02:42:46;;;;;;;5.70;1.70;;;;;;;12.42;73.17;98758.97;5006771;28;20604;-65
2022/09/27 02:45:15;;;;;;;2.72;1.40;;;;;;;12.40;73.29;98756.47;5024843;28;20065;-66
2022/09/27 02:47:55;;;;;;;7.90;1.80;;;;;;;12.43;73.17;98750.09;5029629;28;20080;-66
2022/09/27 02:50:43;;;;;;;2.97;1.65;;;;;;;12.42;73.29;98753.69;5026520;28;20060;-65
2022/09/27 02:53:24;;;;;;;4.93;1.98;;;;;;;12.47;73.25;98755.88;5005283;28;20395;-66
2022/09/27 02:56:22;;;;;;;4.20;1.60;;;;;;;12.49;72.72;98751.28;5005465;28;20061;-69
2022/09/27 02:58:58;;;;;;;2.60;1.65;;;;;;;12.54;72.72;98743.75;5021449;28;20096;-65
2022/09/27 03:01:50;;;;;;;3.63;1.50;;;;;;;12.51;73.01;98749.31;5009610;28;20053;-66
2022/09/27 03:04:27;;;;;;;2.90;1.40;;;;;;;12.51;72.77;98739.59;5027476;28;20046;-67
2022/09/27 03:06:55;;;;;;;3.50;1.75;;;;;;;12.52;73.13;98743.91;5025039;28;20053;-66
2022/09/27 03:09:24;;;;;;;2.17;1.48;;;;;;;12.53;73.12;98742.94;5008370;28;20395;-66
2022/09/27 03:11:52;;;;;;;4.10;1.67;;;;;;;12.43;73.28;98742.16;5004770;28;20071;-66
2022/09/27 03:14:19;;;;;;;1.88;1.40;;;;;;;12.42;73.53;98741.31;5023549;28;20050;-67
2022/09/27 03:16:46;;;;;;;3.15;1.42;;;;;;;12.43;73.17;98736.88;5023468;28;20065;-65
2022/09/27 03:19:13;;;;;;;3.78;1.33;;;;;;;12.44;73.32;98732.44;5036195;28;20048;-65
2022/09/27 03:21:41;;;;;;;2.08;1.33;;;;;;;12.44;73.46;98728.00;5016331;28;20054;-65
2022/09/27 03:24:08;;;;;;;4.07;1.50;;;;;;;12.45;73.36;98732.28;4999145;28;20418;-65
2022/09/27 03:26:35;;;;;;;3.88;1.30;;;;;;;12.49;73.28;98731.00;5027764;28;20426;-66
2022/09/27 03:29:02;;;;;;;2.83;1.42;;;;;;;12.51;73.49;98734.31;5027223;28;20049;-66
2022/09/27 03:31:29;;;;;;;3.47;1.65;;;;;;;12.55;72.86;98716.38;5016344;28;20065;-66
2022/09/27 03:33:57;;;;;;;5.05;2.00;;;;;;;12.54;73.40;98727.91;5029807;28;20053;-66
2022/09/27 03:36:24;;;;;;;3.08;1.45;;;;;;;12.47;73.23;98719.75;5036630;28;20049;-65
2022/09/27 03:38:51;;;;;;;2.58;1.42;;;;;;;12.51;73.53;98707.94;5027824;28;20528;-66
2022/09/27 03:41:18;;;;;;;3.65;1.45;;;;;;;12.56;72.84;98705.69;5021184;28;20057;-66
2022/09/27 03:43:45;;;;;;;2.42;1.67;;;;;;;12.53;72.75;98705.16;5025393;28;20058;-66
2022/09/27 03:46:13;;;;;;;3.65;1.50;;;;;;;12.48;73.01;98713.53;5025422;28;20532;-66
2022/09/27 03:48:41;;;;;;;2.75;1.67;;;;;;;12.50;73.27;98713.38;5034486;28;20644;-65
2022/09/27 03:51:11;;;;;;;3.28;1.55;;;;;;;12.51;73.13;98715.00;5025750;28;20056;-65
2022/09/27 03:53:38;;;;;;;2.95;1.60;;;;;;;12.47;73.25;98717.13;5022705;28;20067;-66
2022/09/27 03:56:05;;;;;;;8.18;2.10;;;;;;;12.49;74.08;98715.16;5025804;28;20057;-67
2022/09/27 03:58:32;;;;;;;4.78;1.75;;;;;;;12.50;73.70;98708.09;5003997;28;20140;-65
2022/09/27 04:00:59;;;;;;;2.28;1.60;;;;;;;12.51;74.34;98702.66;5008116;28;20451;-66
2022/09/27 04:03:27;;;;;;;2.80;1.50;;;;;;;12.48;74.06;98700.31;5021447;28;20050;-65
2022/09/27 04:05:54;;;;;;;2.50;1.50;;;;;;;12.42;74.95;98698.25;5022879;28;20534;-66
2022/09/27 04:08:21;;;;;;;3.45;2.15;;;;;;;12.37;74.72;98688.16;5021753;28;20072;-66
2022/09/27 04:10:49;;;;;;;2.92;1.70;;;;;;;12.40;75.33;98692.31;5026179;28;20046;-66
2022/09/27 04:13:16;;;;;;;3.70;2.13;;;;;;;12.38;75.59;98689.84;5022752;28;20064;-66
2022/09/27 04:15:43;;;;;;;3.35;1.70;;;;;;;12.36;75.82;98690.97;5026193;28;20140;-65
2022/09/27 04:18:18;;;;;;;5.10;2.00;;;;;;;12.30;76.42;98689.75;5005549;28;20054;-66
2022/09/27 04:20:45;;;;;;;2.45;1.40;;;;;;;12.30;76.97;98689.75;5021151;28;20076;-66
2022/09/27 04:23:12;;;;;;;3.67;1.52;;;;;;;12.35;76.86;98681.38;5022812;28;20065;-67
2022/09/27 04:25:39;;;;;;;3.28;1.48;;;;;;;12.28;77.24;98680.31;5018587;28;20053;-66
2022/09/27 04:28:06;;;;;;;4.00;1.92;;;;;;;12.34;77.38;98687.66;5008438;28;20049;-65
2022/09/27 04:30:33;;;;;;;3.00;1.65;;;;;;;12.30;77.08;98689.75;5017192;28;20494;-66
2022/09/27 04:33:00;;;;;;;4.28;1.50;;;;;;;12.34;78.00;98685.84;5023401;28;20057;-64
2022/09/27 04:38:13;;;;;;;;;;;;;;;12.30;78.64;98679.19;5020697;28;20132;-66
2022/09/27 04:40:40;;;;;;;4.85;1.83;;;;;;;12.28;78.78;98685.59;5016956;28;20180;-66
2022/09/27 04:43:08;;;;;;;4.53;1.58;;;;;;;12.24;79.09;98687.69;5039120;28;20055;-66
2022/09/27 04:45:48;;;;;;;3.75;1.50;;;;;;;12.23;79.99;98683.38;5030101;28;20165;-65
2022/09/27 04:48:15;;;;;;;4.28;1.50;;;;;;;12.20;80.49;98693.41;5041909;28;20060;-66
2022/09/27 04:50:43;;;;;;;3.92;1.83;;;;;;;12.17;81.32;98691.91;5039407;28;20049;-67
2022/09/27 04:53:14;;;;;;;2.40;1.60;;;;;;;12.16;81.33;98684.97;5038022;28;20059;-67
2022/09/27 04:55:48;;;;;;;3.03;1.67;;;;;;;12.08;81.89;98690.16;5033928;28;20127;-66
2022/09/27 04:58:16;;;;;;;3.60;1.27;;;;;;;12.09;82.77;98695.28;5023034;28;20096;-66
2022/09/27 05:00:44;;;;;;;4.32;1.95;;;;;;;12.07;82.71;98691.97;5032548;28;20124;-66
2022/09/27 05:03:11;;;;;;;2.60;1.63;;;;;;;12.04;82.97;98691.41;5010227;28;20053;-66
2022/09/27 05:05:38;;;;;;;2.10;1.35;;;;;;;12.02;83.75;98691.59;5030709;28;20076;-65
2022/09/27 05:08:06;;;;;;;3.17;1.50;;;;;;;11.96;83.93;98686.88;4996180;28;20053;-66
2022/09/27 05:10:33;;;;;;;2.55;1.38;;;;;;;11.98;84.36;98694.63;5012389;28;20061;-66
2022/09/27 05:13:00;;;;;;;2.63;1.40;;;;;;;11.92;84.88;98680.22;5013322;28;20068;-65
2022/09/27 05:15:27;;;;;;;2.60;1.48;;;;;;;11.89;85.26;98689.28;5013249;28;20061;-66
2022/09/27 05:17:55;;;;;;;3.42;2.10;;;;;;;11.89;85.33;98686.63;5010838;28;20053;-65
2022/09/27 05:20:24;;;;;;;3.22;1.77;;;;;;;11.88;85.55;98690.22;4995478;28;20050;-65
2022/09/27 05:22:51;;;;;;;6.28;1.65;;;;;;;11.88;85.95;98692.03;5009798;28;20454;-66
2022/09/27 05:25:19;;;;;;;3.35;1.42;;;;;;;11.82;86.90;98687.34;5011594;28;20180;-66
2022/09/27 05:27:46;;;;;;;2.60;1.80;;;;;;;11.76;86.89;98680.00;5021256;28;20088;-66
2022/09/27 05:30:13;;;;;;;2.35;1.40;;;;;;;11.79;87.74;98698.97;5006042;28;20156;-65
2022/09/27 05:32:44;;;;;;;3.25;1.40;;;;;;;11.78;87.62;98686.78;5018553;28;20053;-65
2022/09/27 05:35:11;;;;;;;5.63;1.75;;;;;;;11.78;88.41;98694.69;5012207;28;20140;-64
2022/09/27 05:37:39;;;;;;;5.10;1.52;;;;;;;11.78;88.60;98692.06;5013184;28;20058;-66
2022/09/27 05:40:07;;;;;;;2.88;1.73;;;;;;;11.75;88.61;98696.78;4995033;28;20509;-66
2022/09/27 05:42:55;;;;;;;3.08;1.63;;;;;;;11.68;89.85;98695.72;5010163;28;20104;-65
2022/09/27 05:45:23;;;;;;;4.93;1.65;;;;;;;11.65;90.18;98697.66;5010878;28;20049;-66
2022/09/27 05:47:57;;;;;;;3.10;1.60;;;;;;;11.60;90.40;98691.97;5008300;28;20441;-66
2022/09/27 05:50:25;;;;;;;3.45;1.70;;;;;;;11.60;91.99;98689.34;5010144;28;20647;-66
2022/09/27 05:52:53;;;;;;;4.78;1.92;;;;;;;11.59;91.76;98690.34;5014665;28;20045;-66
2022/09/27 05:55:20;;;;;;;3.63;1.42;;;;;;;11.54;91.83;98689.94;4994555;28;20067;-65
2022/09/27 05:57:58;;;;;;;2.30;1.70;;;;;;;11.58;92.47;98696.59;5013841;28;20050;-65
2022/09/27 06:00:26;;;;;;;2.95;1.95;;;;;;;11.61;92.89;98688.38;5028429;28;20041;-65
2022/09/27 06:03:01;;;;;;;5.05;1.42;;;;;;;11.55;93.17;98688.97;5020773;28;20266;-65
2022/09/27 06:05:30;;;;;;;2.35;1.50;;;;;;;11.56;92.99;98695.88;5020446;28;20064;-65
2022/09/27 06:08:09;;;;;;;2.38;1.50;;;;;;;11.65;93.52;98688.91;5001748;28;20053;-65
2022/09/27 06:10:37;;;;;;;3.20;1.73;;;;;;;11.50;94.44;98696.47;5018960;28;20405;-66
2022/09/27 06:13:13;;;;;;;4.28;1.60;;;;;;;11.46;94.70;98689.00;5007921;28;20337;-64
2022/09/27 06:15:42;;;;;;;2.83;1.67;;;;;;;11.47;95.51;98686.19;4987316;28;20183;-65
2022/09/27 06:18:12;;;;;;;2.67;1.90;;;;;;;11.50;95.81;98682.47;5029442;28;20414;-65
2022/09/27 06:20:41;;;;;;;2.58;1.77;;;;;;;11.51;95.05;98681.47;5028836;28;20041;-65
2022/09/27 06:23:14;;;;;;;5.10;1.60;;;;;;;11.57;95.45;98681.75;5004461;28;20045;-65
2022/09/27 06:25:41;;;;;;;3.40;1.65;;;;;;;11.53;96.07;98684.81;5023990;28;20053;-65
2022/09/27 06:28:09;;;;;;;4.47;1.88;;;;;;;11.56;96.27;98679.25;5026339;28;20041;-65
2022/09/27 06:30:38;;;;;;;2.33;1.58;;;;;;;11.52;96.33;98675.22;5018407;28;20060;-65
2022/09/27 06:33:06;;;;;;;4.25;1.80;;;;;;;11.50;96.36;98679.81;5025294;28;20049;-65
2022/09/27 06:35:34;;;;;;;5.57;1.85;;;;;;;11.49;96.93;98686.06;5026006;28;20055;-65
2022/09/27 06:38:03;;;;;;;5.10;1.80;;;;;;;11.51;96.98;98679.66;5006232;28;20054;-65
2022/09/27 06:40:30;;;;;;;5.35;1.80;;;;;;;11.46;96.96;98681.91;5025040;28;20040;-65
2022/09/27 06:43:08;;;;;;;3.30;1.98;;;;;;;11.41;97.55;98682.34;5030340;28;20063;-64
2022/09/27 06:45:36;;;;;;;4.45;2.30;;;;;;;11.52;97.64;98678.69;5016972;28;20518;-64
2022/09/27 06:48:04;;;;;;;2.33;1.75;;;;;;;11.49;96.99;98680.81;5020973;28;20560;-64
2022/09/27 06:50:33;;;;;;;5.07;2.10;;;;;;;11.50;97.53;98688.56;5023360;28;20054;-65
2022/09/27 06:53:01;;;;;;;4.15;2.63;;;;;;;11.43;98.40;98687.47;5021551;28;20054;-65
2022/09/27 06:55:28;;;;;;;4.03;1.98;;;;;;;11.45;98.34;98690.78;5017274;28;20052;-65
2022/09/27 07:00:42;;;;;;;3.10;1.92;;;;;;;11.44;98.61;98688.28;5021172;28;20046;-65
2022/09/27 07:03:10;;;;;;;4.25;2.35;;;;;;;11.50;98.45;98696.47;5012823;28;20534;-65
2022/09/27 07:05:37;;;;;;;3.30;2.35;;;;;;;11.45;98.69;98690.78;5018516;28;20064;-65
2022/09/27 07:08:05;;;;;;;6.07;2.22;;;;;;;11.48;99.27;98694.94;5032234;28;20118;-65
2022/09/27 07:10:34;;;;;;;5.22;2.65;;;;;;;11.49;99.73;98694.81;5034512;28;20058;-65
2022/09/27 07:13:06;;;;;;;5.80;2.53;;;;;;;11.54;99.24;98689.09;5012746;28;20057;-65
2022/09/27 07:15:37;;;;;;;4.13;2.95;;;;;;;11.52;99.80;98693.69;5031793;28;20136;-65
2022/09/27 07:18:06;;;;;;;5.60;2.63;;;;;;;11.56;99.84;98692.41;4984711;28;20070;-65
2022/09/27 07:20:37;;;;;;;5.28;2.80;;;;;;;11.59;100.00;98692.13;5023123;28;20061;-65
2022/09/27 07:23:05;;;;;;;3.35;2.38;;;;;;;11.59;99.63;98690.34;5029666;28;20089;-65
2022/09/27 07:25:33;;;;;;;5.40;2.50;;;;;;;11.60;99.64;98691.97;5028311;28;20409;-65
2022/09/27 07:28:06;;;;;;;5.10;2.95;;;;;;;11.65;99.67;98694.19;5004465;28;20050;-64
2022/09/27 07:30:34;;;;;;;5.47;2.58;;;;;;;11.59;99.89;98703.50;5029621;28;20445;-65
2022/09/27 07:33:03;;;;;;;4.78;2.60;;;;;;;11.57;99.11;98699.34;5041724;23;20057;-64
2022/09/27 07:35:31;;;;;;;3.90;2.75;;;;;;;11.52;100.00;98704.22;5038909;28;20049;-65
2022/09/27 07:37:58;;;;;;;5.18;2.45;;;;;;;11.50;100.00;98695.63;5029760;28;20049;-65
2022/09/27 07:40:26;;;;;;;3.30;2.50;;;;;;;11.56;100.00;98693.25;5040135;28;20063;-63
2022/09/27 07:42:59;;;;;;;3.80;2.38;;;;;;;11.55;100.00;98688.97;5031272;28;20164;-63
2022/09/27 07:45:26;;;;;;;4.35;2.55;;;;;;;11.51;100.00;98692.84;5013290;28;20045;-64
2022/09/27 07:47:53;;;;;;;3.72;2.35;;;;;;;11.47;100.00;98696.75;5019410;28;20221;-63
2022/09/27 07:50:20;;;;;;;4.57;2.72;;;;;;;11.49;100.00;98692.19;5004786;28;20068;-64
2022/09/27 07:52:51;;;;;;;4.47;2.75;;;;;;;11.53;100.00;98687.47;5019772;28;20059;-64
2022/09/27 07:55:19;;;;;;;3.25;2.20;;;;;;;11.54;100.00;98689.94;4988100;28;20076;-64
2022/09/27 07:57:46;;;;;;;3.05;2.30;;;;;;;11.51;100.00;98684.13;5019917;28;21817;-65
2022/09/27 08:00:15;;;;;;;3.80;1.88;;;;;;;11.57;100.00;98691.44;5023827;28;20959;-64
2022/09/27 08:02:43;;;;;;;2.85;2.13;;;;;;;11.62;100.00;98686.59;5027179;28;20042;-64
2022/09/27 08:05:11;;;;;;;3.63;2.17;;;;;;;11.62;100.00;98689.22;5023752;28;20405;-64
2022/09/27 08:07:39;;;;;;;4.53;2.40;;;;;;;11.54;100.00;98686.47;5021809;28;20058;-64
2022/09/27 08:10:07;;;;;;;2.92;2.08;;;;;;;11.57;100.00;98691.44;5023348;28;20061;-64
2022/09/27 08:12:36;;;;;;;3.55;2.00;;;;;;;11.62;100.00;98707.69;5034667;28;20556;-64
2022/09/27 08:15:03;;;;;;;4.70;1.98;;;;;;;11.56;100.00;98701.16;5038494;28;20674;-64
2022/09/27 08:17:31;;;;;;;4.63;2.13;;;;;;;11.57;100.00;98708.09;5040690;28;20060;-64
2022/09/27 08:19:59;;;;;;;6.15;2.20;;;;;;;11.60;100.00;98694.63;5041291;28;20057;-64
2022/09/27 08:22:26;;;;;;;2.47;1.80;;;;;;;11.62;100.00;98702.41;5038140;28;20052;-63
2022/09/27 08:24:53;;;;;;;3.28;1.83;;;;;;;11.65;100.00;98697.66;5048729;28;20128;-64
2022/09/27 08:27:20;;;;;;;3.22;1.67;;;;;;;11.68;100.00;98701.81;5045594;28;20096;-64
2022/09/27 08:29:47;;;;;;;3.03;1.77;;;;;;;11.69;100.00;98706.09;5047809;28;20057;-64
2022/09/27 08:32:15;;;;;;;2.47;1.67;;;;;;;11.71;100.00;98703.31;5036901;28;20061;-64
2022/09/27 08:34:49;;;;;;;3.83;2.30;;;;;;;11.64;100.00;98690.72;5016405;28;20049;-64
2022/09/27 08:37:16;;;;;;;2.88;1.70;;;;;;;11.67;100.00;98702.78;5032452;28;20064;-64
2022/09/27 08:39:43;;;;;;;4.28;2.00;;;;;;;11.67;100.00;98710.72;5029997;28;20050;-64
2022/09/27 08:42:31;;;;;;;2.88;1.58;;;;;;;11.65;100.00;98708.19;5020192;28;20471;-63
2022/09/27 08:45:17;;;;;;;3.20;1.75;;;;;;;11.59;100.00;98705.31;5004158;28;20778;-64
2022/09/27 08:47:52;;;;;;;2.60;1.95;;;;;;;11.61;100.00;98706.00;5005666;28;20618;-64
2022/09/27 08:50:35;;;;;;;2.85;2.00;;;;;;;11.64;100.00;98701.28;4999642;28;20049;-63
2022/09/27 08:53:12;;;;;;;3.88;1.92;;;;;;;11.62;100.00;98708.50;5006299;28;20049;-64
2022/09/27 08:55:49;;;;;;;2.45;1.58;;;;;;;11.66;100.00;98709.03;5018152;28;20053;-63
2022/09/27 08:58:36;;;;;;;2.28;1.77;;;;;;;11.68;100.00;98711.53;5011014;28;20053;-64
2022/09/27 09:01:09;;;;;;;4.13;2.35;;;;;;;11.73;100.00;98712.75;5009451;28;20054;-63
2022/09/27 09:03:41;;;;;;;2.72;1.88;;;;;;;11.72;100.00;98713.72;5009189;28;20076;-64
2022/09/27 09:06:22;;;;;;;5.28;3.13;;;;;;;11.76;100.00;98704.56;5005331;28;20076;-65
2022/09/27 09:09:45;;;;;;;4.53;3.08;;;;;;;11.80;100.00;98702.47;5009317;28;20054;-63
2022/09/27 09:12:46;;;;;;;4.60;2.47;;;;;;;11.81;100.00;98714.69;4964773;28;20150;-64
2022/09/27 09:15:22;;;;;;;3.45;2.25;;;;;;;11.84;100.00;98704.72;5026330;28;20123;-64
2022/09/27 09:18:19;;;;;;;3.60;2.17;;;;;;;11.87;100.00;98703.56;5016032;28;20449;-64
2022/09/27 09:20:49;;;;;;;3.65;2.00;;;;;;;11.89;100.00;98706.91;5020156;28;20056;-64
2022/09/27 09:23:25;;;;;;;2.72;2.05;;;;;;;11.93;100.00;98704.78;5001700;28;20142;-64
2022/09/27 09:26:17;;;;;;;2.78;1.70;;;;;;;11.88;100.00;98703.41;5016750;28;20072;-64
2022/09/27 09:28:52;;;;;;;2.20;1.73;;;;;;;11.93;100.00;98702.16;5003795;28;20480;-63
2022/09/27 09:31:41;;;;;;;3.00;1.57;;;;;;;11.97;100.00;98700.88;5012168;28;20038;-63
2022/09/27 09:34:19;;;;;;;6.88;2.28;;;;;;;11.98;100.00;98697.25;4993302;28;20057;-63
2022/09/27 09:36:51;;;;;;;3.42;1.98;;;;;;;12.00;100.00;98698.78;4992846;28;20126;-63
2022/09/27 09:39:53;;;;;;;6.30;2.20;;;;;;;12.03;100.00;98702.97;5002672;28;20449;-64
2022/09/27 09:42:26;;;;;;;2.55;2.03;;;;;;;12.03;100.00;98702.97;4987181;28;20067;-64
2022/09/27 09:45:19;;;;;;;3.35;2.35;;;;;;;12.03;100.00;98706.41;5000373;28;20137;-64
2022/09/27 09:48:16;;;;;;;2.80;2.15;;;;;;;12.03;100.00;98700.31;4984151;28;21521;-64
2022/09/27 09:50:49;;;;;;;4.40;2.83;;;;;;;12.07;100.00;98702.53;5025936;28;20053;-65
2022/09/27 09:53:32;;;;;;;3.88;2.50;;;;;;;12.07;100.00;98693.78;4999443;28;20075;-65
2022/09/27 09:56:04;;;;;;;2.85;1.80;;;;;;;12.08;100.00;98698.91;5011477;28;20049;-64
2022/09/27 09:58:54;;;;;;;2.28;1.85;;;;;;;12.09;100.00;98692.63;5000833;28;20456;-65
2022/09/27 10:01:27;;;;;;;3.80;2.10;;;;;;;12.09;100.00;98690.00;4997814;28;20054;-65
2022/09/27 10:03:55;;;;;;;3.40;1.50;;;;;;;12.11;100.00;98689.84;5001072;28;20049;-65
2022/09/27 10:06:24;;;;;;;2.10;1.70;;;;;;;12.18;100.00;98687.47;5021965;28;20061;-64
2022/09/27 10:08:53;;;;;;;4.82;1.98;;;;;;;12.16;100.00;98688.44;5014567;28;20060;-64
2022/09/27 10:11:25;;;;;;;3.67;1.98;;;;;;;12.14;100.00;98677.19;5008832;28;20061;-64
2022/09/27 10:13:55;;;;;;;3.35;2.33;;;;;;;12.13;100.00;98672.91;5019186;28;20053;-65
2022/09/27 10:16:22;;;;;;;2.58;2.10;;;;;;;12.18;100.00;98684.81;5022025;28;20716;-65
2022/09/27 10:18:52;;;;;;;3.00;2.08;;;;;;;12.18;100.00;98680.38;5021036;28;20053;-63
2022/09/27 10:21:22;;;;;;;2.90;1.90;;;;;;;12.27;100.00;98679.47;5000325;28;20053;-64
2022/09/27 10:24:11;;;;;;;3.70;2.00;;;;;;;12.26;100.00;98683.09;4999859;28;20447;-63
2022/09/27 10:26:46;;;;;;;3.42;2.10;;;;;;;12.24;100.00;98684.22;5030790;28;20047;-63
2022/09/27 10:29:19;;;;;;;5.22;2.28;;;;;;;12.27;100.00;98686.56;5016033;28;20259;-64
2022/09/27 10:31:47;;;;;;;3.55;2.30;;;;;;;12.27;100.00;98687.41;5014693;28;20060;-64
2022/09/27 10:34:28;;;;;;;3.53;2.22;;;;;;;12.34;100.00;98690.28;5034777;28;20052;-64
2022/09/27 10:37:06;;;;;;;2.78;2.08;;;;;;;12.38;99.15;98687.19;5019504;28;20410;-64
2022/09/27 10:39:34;;;;;;;3.05;2.03;;;;;;;12.44;98.42;98679.66;5046463;28;20050;-63
2022/09/27 10:42:37;;;;;;;2.97;2.08;;;;;;;12.45;98.02;98686.59;5028536;28;20124;-65
2022/09/27 10:45:31;;;;;;;2.88;2.00;;;;;;;12.46;98.79;98680.31;5048728;28;20056;-65
2022/09/27 10:48:00;;;;;;;3.10;2.28;;;;;;;12.51;98.52;98670.97;5037336;28;20049;-65
2022/09/27 10:50:30;;;;;;;6.57;2.10;;;;;;;12.54;98.57;98678.59;5042997;28;20414;-65
2022/09/27 10:53:19;;;;;;;3.80;2.00;;;;;;;12.66;97.58;98666.84;5039511;28;20068;-65
2022/09/27 10:55:49;;;;;;;3.03;1.70;;;;;;;12.74;96.77;98681.91;5022969;28;20464;-65
2022/09/27 10:58:31;;;;;;;2.90;1.90;;;;;;;12.79;95.74;98676.16;5017488;28;20068;-66
2022/09/27 11:01:06;;;;;;;2.50;1.73;;;;;;;12.96;94.74;98669.22;5045144;28;20052;-65
2022/09/27 11:03:44;;;;;;;5.28;1.85;;;;;;;13.12;94.36;98666.72;5031957;28;20041;-64
2022/09/27 11:06:23;;;;;;;2.00;1.58;;;;;;;13.21;93.47;98660.50;5018158;28;20057;-65
2022/09/27 11:08:52;;;;;;;3.90;1.73;;;;;;;13.21;93.40;98667.59;5042538;28;20049;-65
2022/09/27 11:11:20;;;;;;;2.38;1.60;;;;;;;13.19;92.43;98665.09;5049554;28;20145;-65
2022/09/27 11:13:58;;;;;;;4.13;2.00;;;;;;;13.18;92.47;98658.97;5036297;28;20053;-64
2022/09/27 11:16:35;;;;;;;4.55;2.22;;;;;;;13.17;93.07;98659.97;5036782;28;20063;-65
2022/09/27 11:19:12;;;;;;;2.70;1.80;;;;;;;13.12;92.16;98664.91;5032134;28;20112;-65
2022/09/27 11:22:18;;;;;;;6.25;2.10;;;;;;;13.05;91.85;98666.47;5040218;28;20493;-65
2022/09/27 11:25:00;;;;;;;4.43;1.88;;;;;;;13.02;92.17;98672.09;5031344;28;20084;-63
2022/09/27 11:27:53;;;;;;;4.82;2.08;;;;;;;12.89;93.45;98663.72;5024096;28;20529;-63
2022/09/27 11:30:22;;;;;;;7.03;2.38;;;;;;;12.83;94.37;98662.53;5020863;28;20064;-64
2022/09/27 11:33:00;;;;;;;5.63;2.13;;;;;;;12.81;93.97;98674.22;5013370;28;20040;-64
2022/09/27 11:35:31;;;;;;;2.45;1.75;;;;;;;12.81;94.83;98676.88;5040666;28;20065;-64
2022/09/27 11:38:18;;;;;;;4.60;1.83;;;;;;;12.80;94.40;98677.84;5033617;28;20606;-64
2022/09/27 11:41:33;;;;;;;3.90;1.90;;;;;;;12.74;95.42;98671.34;5023295;28;20057;-64
2022/09/27 11:44:20;;;;;;;6.75;2.35;;;;;;;12.76;95.66;98668.56;5015189;28;20514;-64
2022/09/27 11:46:55;;;;;;;5.30;2.25;;;;;;;12.66;97.02;98668.66;5009655;28;20071;-63
2022/09/27 11:49:42;;;;;;;4.32;2.20;;;;;;;12.75;97.02;98662.47;5012724;28;20059;-64
2022/09/27 11:52:15;;;;;;;5.45;2.55;;;;;;;12.62;96.80;98672.56;5038928;28;20058;-64
2022/09/27 11:55:08;;;;;;;4.85;2.85;;;;;;;12.56;96.34;98679.28;5035400;28;20596;-63
2022/09/27 11:57:41;;;;;;;2.13;1.48;;;;;;;12.29;90.78;98697.78;5040780;28;20399;-64
2022/09/27 12:00:23;;;;;;;1.45;0.90;;;;;;;11.87;91.93;98698.28;5037579;28;20117;-64
2022/09/27 12:03:32;;;;;;;3.38;1.10;;;;;;;11.47;94.10;98707.28;5034497;28;20045;-64
2022/09/27 12:06:05;;;;;;;2.70;0.80;;;;;;;11.08;97.47;98710.00;5037325;28;20049;-64
2022/09/27 12:08:47;;;;;;;2.97;0.70;;;;;;;10.81;99.89;98725.69;5041015;28;20045;-64